createdAt,value
2019-03-30T00:00:51.019Z,40.90
2019-03-30T00:03:20.973Z,41.17
2019-03-30T00:05:50.884Z,43.03
2019-03-30T00:08:21.899Z,41.10
2019-03-30T00:10:51.850Z,41.67
2019-03-30T00:13:21.803Z,42.60
2019-03-30T00:15:51.665Z,42.57
2019-03-30T00:18:21.682Z,40.90
2019-03-30T00:20:51.579Z,44.17
2019-03-30T00:23:23.394Z,44.33
2019-03-30T00:25:53.378Z,45.33
2019-03-30T00:28:23.269Z,41.43
2019-03-30T00:30:53.128Z,48.30
2019-03-30T00:33:23.076Z,46.47
2019-03-30T00:35:52.960Z,50.70
2019-03-30T00:38:22.909Z,54.83
2019-03-30T00:40:52.861Z,46.97
2019-03-30T00:43:22.726Z,49.03
2019-03-30T00:45:52.639Z,49.23
2019-03-30T00:48:23.783Z,47.50
2019-03-30T00:50:53.774Z,48.63
2019-03-30T00:53:23.729Z,51.73
2019-03-30T00:55:53.639Z,53.37
2019-03-30T00:58:25.594Z,48.50
2019-03-30T01:00:54.995Z,55.23
2019-03-30T01:03:25.781Z,50.00
2019-03-30T01:05:58.266Z,51.23
2019-03-30T01:08:27.915Z,46.47
2019-03-30T01:10:57.811Z,47.93
2019-03-30T01:13:27.822Z,50.07
2019-03-30T01:15:57.599Z,45.97
2019-03-30T01:18:27.905Z,46.70
2019-03-30T01:20:57.752Z,47.03
2019-03-30T01:23:27.714Z,48.33
2019-03-30T01:25:57.645Z,50.53
2019-03-30T01:28:27.625Z,46.90
2019-03-30T01:30:57.560Z,51.40
2019-03-30T01:33:28.011Z,50.55
2019-03-30T01:35:57.939Z,50.97
2019-03-30T01:38:27.896Z,48.17
2019-03-30T01:40:57.759Z,49.20
2019-03-30T01:43:27.604Z,50.57
2019-03-30T01:45:57.668Z,49.30
2019-03-30T01:48:27.960Z,48.87
2019-03-30T01:50:57.894Z,53.10
2019-03-30T01:53:27.773Z,52.83
2019-03-30T01:55:57.633Z,46.27
2019-03-30T01:58:27.628Z,49.70
2019-03-30T02:00:57.540Z,51.90
2019-03-30T02:03:27.591Z,50.78
2019-03-30T02:05:57.462Z,53.57
2019-03-30T02:08:27.461Z,51.40
2019-03-30T02:10:57.367Z,52.43
2019-03-30T02:13:27.209Z,53.97
2019-03-30T02:15:59.066Z,54.97
2019-03-30T02:18:28.730Z,53.17
2019-03-30T02:20:58.598Z,58.60
2019-03-30T02:23:28.685Z,56.10
2019-03-30T02:25:58.547Z,58.40
2019-03-30T02:28:28.558Z,61.00
2019-03-30T02:30:58.388Z,61.70
2019-03-30T02:33:28.230Z,60.07
2019-03-30T02:35:58.245Z,56.50
2019-03-30T02:38:28.088Z,62.27
2019-03-30T02:40:58.145Z,57.70
2019-03-30T02:43:28.026Z,57.03
2019-03-30T02:45:57.977Z,56.53
2019-03-30T02:48:27.812Z,58.27
2019-03-30T02:50:57.773Z,60.80
2019-03-30T02:53:27.631Z,55.23
2019-03-30T02:55:57.563Z,58.97
2019-03-30T02:58:27.479Z,60.87
2019-03-30T03:00:57.380Z,61.30
2019-03-30T03:03:27.513Z,65.25
2019-03-30T03:05:57.432Z,62.83
2019-03-30T03:08:27.352Z,62.40
2019-03-30T03:10:57.355Z,61.17
2019-03-30T03:13:27.257Z,63.17
2019-03-30T03:15:57.183Z,65.33
2019-03-30T03:18:27.610Z,61.30
2019-03-30T03:21:07.591Z,67.27
2019-03-30T03:23:29.185Z,59.90
2019-03-30T03:25:59.156Z,62.83
2019-03-30T03:28:29.078Z,57.73
2019-03-30T03:30:59.043Z,54.10
2019-03-30T03:33:28.940Z,60.93
2019-03-30T03:35:58.919Z,56.83
2019-03-30T03:38:28.830Z,54.47
2019-03-30T03:40:59.407Z,61.77
2019-03-30T03:43:29.364Z,56.47
2019-03-30T03:45:59.418Z,60.10
2019-03-30T03:48:29.889Z,58.00
2019-03-30T03:51:02.938Z,59.80
2019-03-30T03:53:34.268Z,59.87
2019-03-30T03:56:05.969Z,66.13
2019-03-30T03:58:37.370Z,65.60
2019-03-30T04:01:07.269Z,62.90
2019-03-30T04:03:37.576Z,62.87
2019-03-30T04:06:08.018Z,62.33
2019-03-30T04:08:38.800Z,62.40
2019-03-30T04:11:10.489Z,64.80
2019-03-30T04:13:43.246Z,62.87
2019-03-30T04:16:13.103Z,69.53
2019-03-30T04:18:47.464Z,62.43
2019-03-30T04:21:14.522Z,65.03
2019-03-30T04:23:44.504Z,66.47
2019-03-30T04:26:14.356Z,63.53
2019-03-30T04:28:44.322Z,64.30
2019-03-30T04:31:14.492Z,65.77
2019-03-30T04:33:44.375Z,75.73
2019-03-30T04:36:14.316Z,61.80
2019-03-30T04:38:44.254Z,63.20
2019-03-30T04:41:14.171Z,62.53
2019-03-30T04:43:44.126Z,59.40
2019-03-30T04:46:14.012Z,57.93
2019-03-30T04:48:43.986Z,58.57
2019-03-30T04:51:13.845Z,59.43
2019-03-30T04:53:43.745Z,53.00
2019-03-30T04:56:13.740Z,54.50
2019-03-30T04:58:43.697Z,57.10
2019-03-30T05:01:13.629Z,52.23
2019-03-30T05:03:43.550Z,48.97
2019-03-30T05:06:13.477Z,54.57
2019-03-30T05:08:43.401Z,57.67
2019-03-30T05:11:13.387Z,61.60
2019-03-30T05:13:43.379Z,57.67
2019-03-30T05:16:13.296Z,49.97
2019-03-30T05:18:43.184Z,57.70
2019-03-30T05:21:13.085Z,66.90
2019-03-30T05:23:43.153Z,68.00
2019-03-30T05:26:13.022Z,64.13
2019-03-30T05:28:43.088Z,63.10
2019-03-30T05:31:12.959Z,61.43
2019-03-30T05:33:42.877Z,58.63
2019-03-30T05:36:12.794Z,65.70
2019-03-30T05:38:42.762Z,63.83
2019-03-30T05:41:12.759Z,61.20
2019-03-30T05:43:42.620Z,58.50
2019-03-30T05:46:12.570Z,61.83
2019-03-30T05:48:42.567Z,59.10
2019-03-30T05:51:12.505Z,59.20
2019-03-30T05:53:42.430Z,50.93
2019-03-30T05:56:12.424Z,57.73
2019-03-30T05:58:42.292Z,54.00
2019-03-30T06:01:12.245Z,50.80
2019-03-30T06:03:42.152Z,54.47
2019-03-30T06:06:12.148Z,56.47
2019-03-30T06:08:42.040Z,52.27
2019-03-30T06:11:12.108Z,53.50
2019-03-30T06:13:41.979Z,52.53
2019-03-30T06:16:11.912Z,50.63
2019-03-30T06:18:41.878Z,45.13
2019-03-30T06:21:11.737Z,45.77
2019-03-30T06:23:41.790Z,50.63
2019-03-30T06:26:11.786Z,43.83
2019-03-30T06:28:41.723Z,44.00
2019-03-30T06:31:11.699Z,41.73
2019-03-30T06:33:41.646Z,46.23
2019-03-30T06:36:11.642Z,40.17
2019-03-30T06:38:41.608Z,39.73
2019-03-30T06:41:11.584Z,42.80
2019-03-30T06:43:41.599Z,60.43
2019-03-30T06:46:11.546Z,58.60
2019-03-30T06:48:41.605Z,81.47
2019-03-30T06:51:11.729Z,88.30
2019-03-30T06:53:41.702Z,72.17
2019-03-30T06:56:13.897Z,70.07
2019-03-30T06:58:44.799Z,43.20
2019-03-30T07:01:20.141Z,42.13
2019-03-30T07:03:50.349Z,44.73
2019-03-30T07:06:20.703Z,43.93
2019-03-30T07:08:54.861Z,45.53
2019-03-30T07:11:28.480Z,50.27
2019-03-30T07:14:01.026Z,41.07
2019-03-30T07:16:34.841Z,37.63
2019-03-30T07:19:05.498Z,40.83
2019-03-30T07:21:36.807Z,34.93
2019-03-30T07:24:12.090Z,33.53
2019-03-30T07:26:42.090Z,34.30
2019-03-30T07:29:12.232Z,31.83
2019-03-30T07:31:42.106Z,36.13
2019-03-30T07:34:12.229Z,35.10
2019-03-30T07:36:42.129Z,35.23
2019-03-30T07:39:12.033Z,32.67
2019-03-30T07:41:43.680Z,30.03
2019-03-30T07:44:13.667Z,30.93
2019-03-30T07:46:51.289Z,28.73
2019-03-30T07:49:21.517Z,25.93
2019-03-30T07:51:51.550Z,28.37
2019-03-30T07:54:23.426Z,28.87
2019-03-30T07:57:04.961Z,27.47
2019-03-30T07:59:26.721Z,25.60
2019-03-30T08:01:56.786Z,26.47
2019-03-30T08:04:28.687Z,25.57
2019-03-30T08:06:58.354Z,27.30
2019-03-30T08:09:28.773Z,26.40
2019-03-30T08:11:58.974Z,23.80
2019-03-30T08:14:30.434Z,24.60
2019-03-30T08:17:01.358Z,25.77
2019-03-30T08:19:33.005Z,23.47
2019-03-30T08:22:03.599Z,22.13
2019-03-30T08:24:33.550Z,22.87
2019-03-30T08:27:03.545Z,21.87
2019-03-30T08:29:33.797Z,18.73
2019-03-30T08:32:03.759Z,18.80
2019-03-30T08:34:33.755Z,17.93
2019-03-30T08:37:03.719Z,19.70
2019-03-30T08:39:33.694Z,18.77
2019-03-30T08:42:03.628Z,18.07
2019-03-30T08:44:33.529Z,17.73
2019-03-30T08:47:03.537Z,17.80
2019-03-30T08:49:33.495Z,16.30
2019-03-30T08:52:03.701Z,16.83
2019-03-30T08:54:36.507Z,16.27
2019-03-30T08:57:06.468Z,16.23
2019-03-30T08:59:36.411Z,16.00
2019-03-30T09:02:06.294Z,15.53
2019-03-30T09:04:36.213Z,15.33
2019-03-30T09:07:06.166Z,15.17
2019-03-30T09:09:36.175Z,15.30
2019-03-30T09:12:06.121Z,13.80
2019-03-30T09:14:35.979Z,14.17
2019-03-30T09:17:06.148Z,14.73
2019-03-30T09:19:36.066Z,15.10
2019-03-30T09:22:06.204Z,14.03
2019-03-30T09:24:36.094Z,13.40
2019-03-30T09:27:06.169Z,13.60
2019-03-30T09:29:36.031Z,13.18
2019-03-30T09:32:14.196Z,12.95
2019-03-30T09:34:40.361Z,12.58
2019-03-30T09:37:11.313Z,13.13
2019-03-30T09:39:41.337Z,12.30
2019-03-30T09:42:11.235Z,12.10
2019-03-30T09:44:41.260Z,12.50
2019-03-30T09:47:11.224Z,10.95
2019-03-30T09:49:41.079Z,11.40
2019-03-30T09:52:11.057Z,10.32
2019-03-30T09:54:41.117Z,9.53
2019-03-30T09:57:11.109Z,9.50
2019-03-30T09:59:41.172Z,9.08
2019-03-30T10:02:11.045Z,8.40
2019-03-30T10:04:41.856Z,9.07
2019-03-30T10:07:21.805Z,9.33
2019-03-30T10:09:51.816Z,8.00
2019-03-30T10:12:21.817Z,8.97
2019-03-30T10:14:51.853Z,9.63
2019-03-30T10:17:21.878Z,9.03
2019-03-30T10:20:03.549Z,7.87
2019-03-30T10:22:23.556Z,9.17
2019-03-30T10:24:53.462Z,8.00
2019-03-30T10:27:23.472Z,8.13
2019-03-30T10:29:53.527Z,9.13
2019-03-30T10:32:23.575Z,12.37
2019-03-30T10:34:54.771Z,9.43
2019-03-30T10:37:24.776Z,10.27
2019-03-30T10:39:54.775Z,9.33
2019-03-30T10:42:24.719Z,10.80
2019-03-30T10:44:54.597Z,11.73
2019-03-30T10:47:24.566Z,11.07
2019-03-30T10:49:54.495Z,10.78
2019-03-30T10:52:24.502Z,11.63
2019-03-30T10:54:54.350Z,11.30
2019-03-30T10:57:24.757Z,11.85
2019-03-30T10:59:54.643Z,12.07
2019-03-30T11:02:24.596Z,12.03
2019-03-30T11:04:54.625Z,11.75
2019-03-30T11:07:25.802Z,11.85
2019-03-30T11:09:55.907Z,12.55
2019-03-30T11:12:25.964Z,12.37
2019-03-30T11:14:58.886Z,12.55
2019-03-30T11:17:29.371Z,12.47
2019-03-30T11:19:59.526Z,11.43
2019-03-30T11:22:29.528Z,11.97
2019-03-30T11:25:07.445Z,12.57
2019-03-30T11:27:31.144Z,13.00
2019-03-30T11:30:01.142Z,11.80
2019-03-30T11:32:32.325Z,11.50
2019-03-30T11:35:02.453Z,12.50
2019-03-30T11:37:32.441Z,12.63
2019-03-30T11:40:03.654Z,13.10
2019-03-30T11:42:34.660Z,13.37
2019-03-30T11:45:07.500Z,12.70
2019-03-30T11:47:38.060Z,19.77
2019-03-30T11:50:08.991Z,13.90
2019-03-30T11:52:38.971Z,11.93
2019-03-30T11:55:20.905Z,11.47
2019-03-30T11:57:42.448Z,12.07
2019-03-30T12:00:13.130Z,11.70
2019-03-30T12:02:43.122Z,14.93
2019-03-30T12:05:13.447Z,12.60
2019-03-30T12:07:43.436Z,13.30
2019-03-30T12:10:13.770Z,13.43
2019-03-30T12:12:43.776Z,13.97
2019-03-30T12:15:14.521Z,13.87
2019-03-30T12:17:44.448Z,13.80
2019-03-30T12:20:14.433Z,14.07
2019-03-30T12:22:44.371Z,13.17
2019-03-30T12:25:14.571Z,13.80
2019-03-30T12:27:44.559Z,14.37
2019-03-30T12:30:14.639Z,12.60
2019-03-30T12:32:44.724Z,14.23
2019-03-30T12:35:14.754Z,13.07
2019-03-30T12:37:44.773Z,15.17
2019-03-30T12:40:14.744Z,12.90
2019-03-30T12:42:44.586Z,13.53
2019-03-30T12:45:14.867Z,13.03
2019-03-30T12:47:48.292Z,14.07
2019-03-30T12:50:24.241Z,13.87
2019-03-30T12:52:57.024Z,12.70
2019-03-30T12:55:26.906Z,13.57
2019-03-30T12:57:56.876Z,14.80
2019-03-30T13:00:27.478Z,14.75
2019-03-30T13:02:57.439Z,13.50
2019-03-30T13:05:27.320Z,14.73
2019-03-30T13:07:57.284Z,14.43
2019-03-30T13:10:27.241Z,14.40
2019-03-30T13:12:57.134Z,14.63
2019-03-30T13:15:27.509Z,15.25
2019-03-30T13:17:57.390Z,14.13
2019-03-30T13:20:27.299Z,13.97
2019-03-30T13:22:57.176Z,12.37
2019-03-30T13:25:27.122Z,13.50
2019-03-30T13:27:57.035Z,13.43
2019-03-30T13:30:27.540Z,13.03
2019-03-30T13:32:57.395Z,13.83
2019-03-30T13:35:27.343Z,13.47
2019-03-30T13:37:57.195Z,14.03
2019-03-30T13:40:27.161Z,15.03
2019-03-30T13:42:57.073Z,14.37
2019-03-30T13:45:28.146Z,13.05
2019-03-30T13:47:57.971Z,15.03
2019-03-30T13:50:30.828Z,14.33
2019-03-30T13:52:59.587Z,12.60
2019-03-30T13:55:29.622Z,12.90
2019-03-30T13:57:59.618Z,11.97
2019-03-30T14:00:29.637Z,12.90
2019-03-30T14:02:59.573Z,12.57
2019-03-30T14:05:29.590Z,12.67
2019-03-30T14:07:59.478Z,13.50
2019-03-30T14:10:29.355Z,12.63
2019-03-30T14:12:59.299Z,13.63
2019-03-30T14:15:29.284Z,12.07
2019-03-30T14:17:59.212Z,11.67
2019-03-30T14:20:29.183Z,10.80
2019-03-30T14:22:59.057Z,11.03
2019-03-30T14:25:29.001Z,10.83
2019-03-30T14:27:58.971Z,11.77
2019-03-30T14:30:28.926Z,10.97
2019-03-30T14:32:58.793Z,11.27
2019-03-30T14:35:28.691Z,11.13
2019-03-30T14:37:58.771Z,12.07
2019-03-30T14:40:28.723Z,11.87
2019-03-30T14:42:58.578Z,10.70
2019-03-30T14:45:28.537Z,15.57
2019-03-30T14:47:58.495Z,14.63
2019-03-30T14:50:28.485Z,9.87
2019-03-30T14:52:58.427Z,11.27
2019-03-30T14:55:30.323Z,9.33
2019-03-30T14:58:00.288Z,11.03
2019-03-30T15:00:30.348Z,9.60
2019-03-30T15:03:00.403Z,11.20
2019-03-30T15:05:30.367Z,10.47
2019-03-30T15:08:00.289Z,10.80
2019-03-30T15:10:30.205Z,11.60
2019-03-30T15:13:00.124Z,7.23
2019-03-30T15:15:30.029Z,8.63
2019-03-30T15:17:59.890Z,7.80
2019-03-30T15:20:30.195Z,6.70
2019-03-30T15:23:00.142Z,6.90
2019-03-30T15:25:30.003Z,6.73
2019-03-30T15:27:59.978Z,6.87
2019-03-30T15:30:29.908Z,6.37
2019-03-30T15:33:03.152Z,6.30
2019-03-30T15:35:31.404Z,7.00
2019-03-30T15:38:01.284Z,7.13
2019-03-30T15:40:31.247Z,8.03
2019-03-30T15:43:01.217Z,9.73
2019-03-30T15:45:31.182Z,8.50
2019-03-30T15:48:01.035Z,9.17
2019-03-30T15:50:31.008Z,10.07
2019-03-30T15:53:00.987Z,8.30
2019-03-30T15:55:36.206Z,8.50
2019-03-30T15:58:06.138Z,8.70
2019-03-30T16:00:36.081Z,9.07
2019-03-30T16:03:05.979Z,8.50
2019-03-30T16:05:35.942Z,8.63
2019-03-30T16:08:05.874Z,8.77
2019-03-30T16:10:35.791Z,9.63
2019-03-30T16:13:05.697Z,7.80
2019-03-30T16:15:35.726Z,7.20
2019-03-30T16:18:05.816Z,10.13
2019-03-30T16:20:35.791Z,12.23
2019-03-30T16:23:05.724Z,6.97
2019-03-30T16:25:35.764Z,7.80
2019-03-30T16:28:05.705Z,9.60
2019-03-30T16:30:35.718Z,11.20
2019-03-30T16:33:05.831Z,9.40
2019-03-30T16:35:35.955Z,10.70
2019-03-30T16:38:09.142Z,13.03
2019-03-30T16:40:39.069Z,11.77
2019-03-30T16:43:08.927Z,12.43
2019-03-30T16:45:39.047Z,10.97
2019-03-30T16:48:09.017Z,15.57
2019-03-30T16:50:39.302Z,15.70
2019-03-30T16:53:09.292Z,17.40
2019-03-30T16:55:39.235Z,16.03
2019-03-30T16:58:09.302Z,15.77
2019-03-30T17:00:39.228Z,14.20
2019-03-30T17:03:09.369Z,14.03
2019-03-30T17:05:40.108Z,18.77
2019-03-30T17:08:10.417Z,19.70
2019-03-30T17:10:40.815Z,21.00
2019-03-30T17:13:10.654Z,24.77
2019-03-30T17:15:40.529Z,23.30
2019-03-30T17:18:10.410Z,23.13
2019-03-30T17:20:40.191Z,23.23
2019-03-30T17:23:10.097Z,16.87
2019-03-30T17:25:40.054Z,16.97
2019-03-30T17:28:09.993Z,13.53
2019-03-30T17:30:39.935Z,11.23
2019-03-30T17:33:10.991Z,11.27
2019-03-30T17:35:40.822Z,11.97
2019-03-30T17:38:10.855Z,10.93
2019-03-30T17:40:40.769Z,11.60
2019-03-30T17:43:10.758Z,11.07
2019-03-30T17:45:40.671Z,13.80
2019-03-30T17:48:10.646Z,16.40
2019-03-30T17:50:40.678Z,17.43
2019-03-30T17:53:10.558Z,18.90
2019-03-30T17:55:40.479Z,19.37
2019-03-30T17:58:13.231Z,18.83
2019-03-30T18:00:41.978Z,19.17
2019-03-30T18:03:11.895Z,17.73
2019-03-30T18:05:41.786Z,16.70
2019-03-30T18:08:11.656Z,20.47
2019-03-30T18:10:41.551Z,15.27
2019-03-30T18:13:11.475Z,13.97
2019-03-30T18:15:41.495Z,12.87
2019-03-30T18:18:11.482Z,12.30
2019-03-30T18:20:41.378Z,14.53
2019-03-30T18:23:11.262Z,14.30
2019-03-30T18:25:41.266Z,17.70
2019-03-30T18:28:11.155Z,15.57
2019-03-30T18:30:41.689Z,15.07
2019-03-30T18:33:11.593Z,16.27
2019-03-30T18:35:41.889Z,17.53
2019-03-30T18:38:14.275Z,18.40
2019-03-30T18:40:44.142Z,16.77
2019-03-30T18:43:14.202Z,15.40
2019-03-30T18:45:44.965Z,14.70
2019-03-30T18:48:17.420Z,16.00
2019-03-30T18:50:47.797Z,15.87
2019-03-30T18:53:17.980Z,19.57
2019-03-30T18:55:47.994Z,16.60
2019-03-30T18:58:18.189Z,16.53
2019-03-30T19:00:48.041Z,14.03
2019-03-30T19:03:20.051Z,16.87
2019-03-30T19:05:49.685Z,15.70
2019-03-30T19:08:19.623Z,15.43
2019-03-30T19:10:49.572Z,17.17
2019-03-30T19:13:19.996Z,16.93
2019-03-30T19:15:50.341Z,15.30
2019-03-30T19:18:20.221Z,17.77
2019-03-30T19:20:50.231Z,20.80
2019-03-30T19:23:20.179Z,26.57
2019-03-30T19:25:50.004Z,44.60
2019-03-30T19:28:19.961Z,39.83
2019-03-30T19:30:49.976Z,42.10
2019-03-30T19:33:19.935Z,30.53
2019-03-30T19:35:49.898Z,24.13
2019-03-30T19:38:19.817Z,26.23
2019-03-30T19:40:49.716Z,23.57
2019-03-30T19:43:19.516Z,16.73
2019-03-30T19:45:49.555Z,20.40
2019-03-30T19:48:19.575Z,17.70
2019-03-30T19:50:49.499Z,17.80
2019-03-30T19:53:20.778Z,14.03
2019-03-30T19:55:50.926Z,14.50
2019-03-30T19:58:20.902Z,12.73
2019-03-30T20:00:50.789Z,17.10
2019-03-30T20:03:21.493Z,16.60
2019-03-30T20:05:51.543Z,16.90
2019-03-30T20:08:21.502Z,15.50
2019-03-30T20:10:51.376Z,14.87
2019-03-30T20:13:21.452Z,16.47
2019-03-30T20:15:51.371Z,16.07
2019-03-30T20:18:21.385Z,15.57
2019-03-30T20:20:51.314Z,17.20
2019-03-30T20:23:21.316Z,15.93
2019-03-30T20:25:51.217Z,17.63
2019-03-30T20:28:21.120Z,14.63
2019-03-30T20:30:51.103Z,19.00
2019-03-30T20:33:23.906Z,15.97
2019-03-30T20:35:53.728Z,19.07
2019-03-30T20:38:23.747Z,18.80
2019-03-30T20:40:53.664Z,17.33
2019-03-30T20:43:23.566Z,21.37
2019-03-30T20:45:53.454Z,15.63
2019-03-30T20:48:23.268Z,14.23
2019-03-30T20:50:53.223Z,18.90
2019-03-30T20:53:23.116Z,17.07
2019-03-30T20:55:53.200Z,17.20
2019-03-30T20:58:23.128Z,16.40
2019-03-30T21:00:53.621Z,15.43
2019-03-30T21:03:23.570Z,16.70
2019-03-30T21:05:53.479Z,16.30
2019-03-30T21:08:23.302Z,16.17
2019-03-30T21:10:53.596Z,14.83
2019-03-30T21:13:23.575Z,15.17
2019-03-30T21:15:53.517Z,16.30
2019-03-30T21:18:23.496Z,16.00
2019-03-30T21:20:53.387Z,16.03
2019-03-30T21:23:23.282Z,17.33
2019-03-30T21:25:53.175Z,16.77
2019-03-30T21:28:23.187Z,19.03
2019-03-30T21:30:53.289Z,22.53
2019-03-30T21:33:23.102Z,23.53
2019-03-30T21:35:53.068Z,27.73
2019-03-30T21:38:23.032Z,25.37
2019-03-30T21:40:52.911Z,26.27
2019-03-30T21:43:22.836Z,36.70
2019-03-30T21:45:52.671Z,33.23
2019-03-30T21:48:22.771Z,24.97
2019-03-30T21:50:52.633Z,28.07
2019-03-30T21:53:22.513Z,25.37
2019-03-30T21:55:52.453Z,27.03
2019-03-30T21:58:22.273Z,28.43
2019-03-30T22:00:52.180Z,24.17
2019-03-30T22:03:23.444Z,28.73
2019-03-30T22:05:53.242Z,30.50
2019-03-30T22:08:23.091Z,30.87
2019-03-30T22:10:53.077Z,30.53
2019-03-30T22:13:22.967Z,31.53
2019-03-30T22:15:52.897Z,34.40
2019-03-30T22:18:22.958Z,35.60
2019-03-30T22:20:52.826Z,37.13
2019-03-30T22:23:22.769Z,36.87
2019-03-30T22:25:53.114Z,41.17
2019-03-30T22:28:23.064Z,40.03
2019-03-30T22:30:52.849Z,44.20
2019-03-30T22:33:22.734Z,65.10
2019-03-30T22:35:52.603Z,45.73
2019-03-30T22:38:22.514Z,49.60
2019-03-30T22:40:52.351Z,56.00
2019-03-30T22:43:22.213Z,50.50
2019-03-30T22:45:52.064Z,51.37
2019-03-30T22:48:22.169Z,51.03
2019-03-30T22:50:52.096Z,53.83
2019-03-30T22:53:21.967Z,57.63
2019-03-30T22:55:51.882Z,53.67
2019-03-30T22:58:21.853Z,51.90
2019-03-30T23:01:02.414Z,53.50
2019-03-30T23:03:32.334Z,58.43
2019-03-30T23:06:02.257Z,56.10
2019-03-30T23:08:32.175Z,59.53
2019-03-30T23:11:02.166Z,62.37
2019-03-30T23:13:32.119Z,60.80
2019-03-30T23:16:02.009Z,62.67
2019-03-30T23:18:31.968Z,60.63
2019-03-30T23:21:01.854Z,57.53
2019-03-30T23:23:31.765Z,57.93
2019-03-30T23:26:01.710Z,59.60
2019-03-30T23:28:31.564Z,60.80
2019-03-30T23:31:01.352Z,63.97
2019-03-30T23:33:31.204Z,64.13
2019-03-30T23:36:01.073Z,64.70
2019-03-30T23:38:31.304Z,65.57
2019-03-30T23:41:01.275Z,70.10
2019-03-30T23:43:31.200Z,66.47
2019-03-30T23:46:01.167Z,65.97
2019-03-30T23:48:31.055Z,57.87
2019-03-30T23:51:01.026Z,60.07
2019-03-30T23:53:30.803Z,61.83
2019-03-30T23:56:00.655Z,53.80
2019-03-30T23:58:30.661Z,55.60
